Time;durP1;ratioP1;P1;durP2;ratioP2;P2;SDS_P1;SDS_P2;PMS_P1;PMS_P2;Temp;Humidity;BMP_temperature;BMP_pressure;BME280_temperature;BME280_humidity;BME280_pressure;Samples;Min_cycle;Max_cycle;Signal;HPM_P1;HPM_P2
2023/08/19 00:00:54;;;;;;;65.40;59.15;;;24.30;99.90;;;;;;5050395;28;20426;-63
2023/08/19 00:03:19;;;;;;;66.07;59.97;;;24.10;99.90;;;;;;5053344;28;20500;-63
2023/08/19 00:05:45;;;;;;;67.50;61.05;;;24.30;99.90;;;;;;5049793;28;20041;-63
2023/08/19 00:08:11;;;;;;;66.07;59.53;;;23.50;99.90;;;;;;5064157;28;20040;-63
2023/08/19 00:10:37;;;;;;;67.30;61.03;;;23.90;99.90;;;;;;5050495;28;20028;-66
2023/08/19 00:13:03;;;;;;;67.07;60.60;;;23.20;99.90;;;;;;5050158;28;20048;-64
2023/08/19 00:15:28;;;;;;;66.63;60.47;;;23.00;99.90;;;;;;5049791;28;20044;-66
2023/08/19 00:17:54;;;;;;;71.00;64.28;;;23.90;99.90;;;;;;5050543;28;20041;-66
2023/08/19 00:20:21;;;;;;;64.30;58.22;;;24.20;99.90;;;;;;5049921;28;20505;-65
2023/08/19 00:22:46;;;;;;;68.40;61.72;;;22.80;99.90;;;;;;5050687;28;20040;-65
2023/08/19 00:25:12;;;;;;;69.72;63.10;;;24.30;99.90;;;;;;5049623;28;20039;-65
2023/08/19 00:27:38;;;;;;;68.53;61.85;;;22.80;99.90;;;;;;5049857;28;20033;-65
2023/08/19 00:30:03;;;;;;;66.72;60.35;;;23.90;99.90;;;;;;5049361;28;20033;-65
2023/08/19 00:32:30;;;;;;;67.28;60.80;;;23.80;99.90;;;;;;5048591;28;20119;-66
2023/08/19 00:34:56;;;;;;;70.03;63.17;;;24.50;99.90;;;;;;5049710;28;20475;-66
2023/08/19 00:37:21;;;;;;;67.15;60.65;;;22.80;99.90;;;;;;5050621;28;20041;-66
2023/08/19 00:39:47;;;;;;;66.35;59.83;;;24.20;99.90;;;;;;5049532;28;20045;-65
2023/08/19 00:42:12;;;;;;;67.30;61.10;;;24.50;99.90;;;;;;5049572;28;20064;-65
2023/08/19 00:44:38;;;;;;;65.35;59.35;;;24.00;99.90;;;;;;5049365;28;20486;-66
2023/08/19 00:47:04;;;;;;;66.75;60.25;;;23.30;99.90;;;;;;5049114;28;20029;-66
2023/08/19 00:49:30;;;;;;;68.22;61.78;;;22.60;99.90;;;;;;5042009;28;20091;-65
2023/08/19 00:51:57;;;;;;;67.93;61.42;;;23.90;99.90;;;;;;5053328;28;20327;-65
2023/08/19 00:54:23;;;;;;;65.53;59.05;;;24.30;99.90;;;;;;5049417;28;20029;-65
2023/08/19 00:56:49;;;;;;;67.82;61.20;;;22.70;99.90;;;;;;5049254;28;20398;-65
2023/08/19 00:59:14;;;;;;;66.63;60.17;;;23.90;99.90;;;;;;5048623;28;20048;-66
2023/08/19 01:01:41;;;;;;;68.45;61.88;;;23.10;99.90;;;;;;5049342;28;20055;-65
2023/08/19 01:04:07;;;;;;;66.40;60.05;;;22.90;99.90;;;;;;5052763;28;20475;-65
2023/08/19 01:06:47;;;;;;;65.32;59.20;;;23.30;99.90;;;;;;5049102;28;20052;-65
2023/08/19 01:09:38;;;;;;;68.53;61.85;;;23.40;99.90;;;;;;5049165;28;20037;-66
2023/08/19 01:12:17;;;;;;;68.70;62.40;;;23.90;99.90;;;;;;5048007;28;20124;-66
2023/08/19 01:15:04;;;;;;;65.70;59.08;;;24.40;99.90;;;;;;5049388;28;20446;-65
2023/08/19 01:17:31;;;;;;;66.75;60.30;;;24.20;99.90;;;;;;5053288;28;20461;-66
2023/08/19 01:19:57;;;;;;;65.40;58.92;;;23.00;99.90;;;;;;5059232;28;20068;-64
2023/08/19 01:22:54;;;;;;;67.43;60.78;;;24.20;99.90;;;;;;5060292;28;20183;-64
2023/08/19 01:25:19;;;;;;;;;;;23.00;99.90;;;;;;5048033;28;20033;-64
2023/08/19 01:27:45;;;;;;;68.60;61.93;;;24.30;99.90;;;;;;5054114;28;20283;-64
2023/08/19 01:30:11;;;;;;;67.00;60.50;;;24.30;99.90;;;;;;5052658;28;20150;-64
2023/08/19 01:32:38;;;;;;;68.50;61.85;;;24.30;99.90;;;;;;5052707;28;20044;-63
2023/08/19 01:35:05;;;;;;;68.57;62.30;;;24.30;99.90;;;;;;5052513;28;20037;-63
2023/08/19 01:37:43;;;;;;;70.97;64.13;;;22.50;99.90;;;;;;5061768;28;20461;-64
2023/08/19 01:40:13;;;;;;;70.03;63.15;;;24.30;99.90;;;;;;5052527;28;20024;-64
2023/08/19 01:42:40;;;;;;;68.68;61.85;;;22.40;99.90;;;;;;5052972;28;20041;-63
2023/08/19 01:45:07;;;;;;;68.60;62.10;;;24.40;99.90;;;;;;5051386;28;20049;-64
2023/08/19 01:47:36;;;;;;;68.88;62.17;;;24.50;99.90;;;;;;5053898;28;20080;-64
2023/08/19 01:50:01;;;;;;;70.40;63.45;;;23.90;99.90;;;;;;5052482;28;20032;-64
2023/08/19 01:52:27;;;;;;;71.25;64.47;;;23.60;99.90;;;;;;5052985;28;20033;-64
2023/08/19 01:54:52;;;;;;;71.15;64.30;;;23.30;99.90;;;;;;5052261;28;20040;-64
2023/08/19 01:57:18;;;;;;;68.82;62.13;;;24.40;99.90;;;;;;5052694;28;20033;-63
2023/08/19 01:59:44;;;;;;;69.93;63.15;;;24.40;99.90;;;;;;5051984;28;20048;-64
2023/08/19 02:02:09;;;;;;;72.25;65.40;;;22.60;99.90;;;;;;5052498;28;20064;-64
2023/08/19 02:04:35;;;;;;;68.97;62.55;;;22.50;99.90;;;;;;5052320;28;20033;-64
2023/08/19 02:07:00;;;;;;;69.40;62.80;;;24.50;99.90;;;;;;5052179;28;20072;-64
2023/08/19 02:09:26;;;;;;;68.82;62.35;;;24.40;99.90;;;;;;5052376;28;20060;-64
2023/08/19 02:11:51;;;;;;;68.70;62.20;;;24.10;99.90;;;;;;5052248;28;20546;-64
2023/08/19 02:14:17;;;;;;;70.10;63.50;;;23.10;99.90;;;;;;5051586;28;20044;-64
2023/08/19 02:16:42;;;;;;;67.68;60.95;;;22.40;99.90;;;;;;5052532;28;20053;-64
2023/08/19 02:19:08;;;;;;;72.93;65.97;;;23.00;99.90;;;;;;5057586;28;20076;-64
2023/08/19 02:21:33;;;;;;;66.70;60.40;;;24.50;99.90;;;;;;5052359;28;20530;-64
2023/08/19 02:23:59;;;;;;;66.80;60.80;;;22.80;99.90;;;;;;5052035;28;20376;-64
2023/08/19 02:26:25;;;;;;;70.82;64.07;;;24.50;99.90;;;;;;5051563;28;20033;-64
2023/08/19 02:28:50;;;;;;;69.47;62.97;;;22.50;99.90;;;;;;5052093;28;20067;-64
2023/08/19 02:31:16;;;;;;;68.00;61.53;;;23.80;99.90;;;;;;5051401;28;20112;-61
2023/08/19 02:33:41;;;;;;;70.22;63.63;;;24.30;99.90;;;;;;5051975;28;20039;-61
2023/08/19 02:36:07;;;;;;;66.47;60.25;;;23.80;99.90;;;;;;5051788;28;20510;-61
2023/08/19 02:38:33;;;;;;;69.65;62.92;;;24.20;99.90;;;;;;5051491;28;20045;-62
2023/08/19 02:40:58;;;;;;;65.93;59.65;;;24.30;99.90;;;;;;5049825;28;20407;-62
2023/08/19 02:43:24;;;;;;;68.35;61.83;;;24.10;99.90;;;;;;5051749;28;20126;-61
2023/08/19 02:45:49;;;;;;;69.15;62.85;;;22.80;99.90;;;;;;5051646;28;20495;-62
2023/08/19 02:48:15;;;;;;;67.10;61.00;;;23.90;99.90;;;;;;5052035;28;20032;-62
2023/08/19 02:50:41;;;;;;;66.65;60.40;;;24.00;99.90;;;;;;5050975;28;20041;-61
2023/08/19 02:53:07;;;;;;;68.03;61.42;;;24.40;99.90;;;;;;5050459;28;20040;-64
2023/08/19 02:55:33;;;;;;;67.80;61.40;;;23.60;99.90;;;;;;5050574;28;20384;-62
2023/08/19 02:57:59;;;;;;;70.45;63.78;;;23.00;99.90;;;;;;5050746;28;20037;-62
2023/08/19 03:00:26;;;;;;;71.00;64.35;;;24.50;99.90;;;;;;5049918;28;20459;-62
2023/08/19 03:02:52;;;;;;;68.85;62.50;;;24.70;99.90;;;;;;5051468;28;20060;-62
2023/08/19 03:05:17;;;;;;;67.35;61.08;;;24.40;99.90;;;;;;5055679;28;20376;-63
2023/08/19 03:07:43;;;;;;;67.18;60.90;;;23.50;99.90;;;;;;5057923;28;20086;-62
2023/08/19 03:10:08;;;;;;;66.45;60.20;;;24.60;99.90;;;;;;5051248;28;20044;-62
2023/08/19 03:12:34;;;;;;;66.95;60.42;;;23.30;99.90;;;;;;5051792;28;20489;-63
2023/08/19 03:15:00;;;;;;;64.53;58.45;;;24.20;99.90;;;;;;5051166;28;20532;-61
2023/08/19 03:17:25;;;;;;;64.38;58.47;;;23.00;99.90;;;;;;5054719;28;20075;-62
2023/08/19 03:19:51;;;;;;;68.45;61.83;;;23.40;99.90;;;;;;5051240;28;20120;-61
2023/08/19 03:22:17;;;;;;;66.65;60.55;;;23.00;99.90;;;;;;5051106;28;20051;-63
2023/08/19 03:24:43;;;;;;;64.90;58.85;;;23.20;99.90;;;;;;5050540;28;20033;-63
2023/08/19 03:27:09;;;;;;;67.82;61.50;;;23.10;99.90;;;;;;5051123;28;20094;-62
2023/08/19 03:29:35;;;;;;;66.00;60.13;;;24.30;99.90;;;;;;5050578;28;20452;-61
2023/08/19 03:32:01;;;;;;;67.93;61.60;;;22.90;99.90;;;;;;5052161;28;20036;-61
2023/08/19 03:34:27;;;;;;;65.88;59.83;;;24.00;99.90;;;;;;5049884;28;20052;-62
2023/08/19 03:36:53;;;;;;;65.88;59.92;;;23.00;99.90;;;;;;5050943;28;20041;-61
2023/08/19 03:39:18;;;;;;;67.78;61.30;;;24.70;99.90;;;;;;5065135;28;20029;-62
2023/08/19 03:41:44;;;;;;;63.90;58.05;;;24.10;99.90;;;;;;5050545;28;20409;-64
2023/08/19 03:44:09;;;;;;;65.38;59.15;;;24.00;99.90;;;;;;5050579;28;20044;-64
2023/08/19 03:46:35;;;;;;;65.57;59.35;;;24.50;99.90;;;;;;5054915;28;20044;-64
2023/08/19 03:49:00;;;;;;;64.28;57.95;;;23.90;99.90;;;;;;5048363;28;20115;-64
2023/08/19 03:51:26;;;;;;;64.82;58.70;;;24.80;99.90;;;;;;5065609;28;20037;-63
2023/08/19 03:53:52;;;;;;;63.20;57.28;;;23.00;99.90;;;;;;5050314;28;20044;-64
2023/08/19 03:56:18;;;;;;;64.30;58.22;;;24.10;99.90;;;;;;5050330;28;20036;-64
2023/08/19 03:58:46;;;;;;;63.10;57.47;;;23.90;99.90;;;;;;5048060;28;20045;-64
2023/08/19 04:01:12;;;;;;;62.35;56.50;;;24.60;99.90;;;;;;5049400;28;20049;-64
2023/08/19 04:03:38;;;;;;;66.15;60.08;;;25.00;99.90;;;;;;5050033;28;20094;-64
2023/08/19 04:06:04;;;;;;;68.00;61.60;;;25.00;99.90;;;;;;5050288;28;20045;-64
2023/08/19 04:08:29;;;;;;;64.32;58.53;;;23.80;99.90;;;;;;5050347;28;20041;-64
2023/08/19 04:11:02;;;;;;;64.28;58.33;;;23.20;99.90;;;;;;5049963;28;20473;-64
2023/08/19 04:13:28;;;;;;;62.35;56.75;;;23.40;99.90;;;;;;5050092;28;20136;-64
2023/08/19 04:15:53;;;;;;;62.95;57.15;;;23.30;99.90;;;;;;5050061;28;20538;-64
2023/08/19 04:18:19;;;;;;;63.28;57.35;;;23.90;99.90;;;;;;5052865;28;20064;-64
2023/08/19 04:20:44;;;;;;;63.92;58.15;;;24.00;99.90;;;;;;5056345;28;20040;-64
2023/08/19 04:23:12;;;;;;;63.90;58.00;;;24.20;99.90;;;;;;5050210;28;20124;-64
2023/08/19 04:25:38;;;;;;;63.92;58.10;;;24.20;99.90;;;;;;5049564;28;20083;-64
2023/08/19 04:28:03;;;;;;;64.57;58.20;;;24.40;99.90;;;;;;5049658;28;20041;-64
2023/08/19 04:30:29;;;;;;;63.53;57.92;;;23.70;99.90;;;;;;5049074;28;20043;-64
2023/08/19 04:32:58;;;;;;;65.35;59.05;;;25.20;99.90;;;;;;5049904;28;20040;-64
2023/08/19 04:35:30;;;;;;;62.65;56.97;;;23.80;99.90;;;;;;5049716;28;20125;-64
2023/08/19 04:37:55;;;;;;;62.80;56.88;;;23.90;99.90;;;;;;5043300;28;20048;-64
2023/08/19 04:40:21;;;;;;;65.68;59.63;;;24.80;99.90;;;;;;5049484;28;20045;-64
2023/08/19 04:42:47;;;;;;;62.70;56.97;;;23.50;99.90;;;;;;5048263;28;20029;-64
2023/08/19 04:45:14;;;;;;;63.28;57.38;;;25.00;99.90;;;;;;5049603;28;20467;-64
2023/08/19 04:47:40;;;;;;;62.33;56.65;;;24.50;99.90;;;;;;5050063;28;20045;-64
2023/08/19 04:50:08;;;;;;;63.22;57.42;;;23.70;99.90;;;;;;5052329;28;20036;-61
2023/08/19 04:52:34;;;;;;;63.53;57.70;;;23.80;99.90;;;;;;5053234;28;20120;-62
2023/08/19 04:54:59;;;;;;;66.63;60.30;;;23.60;99.90;;;;;;5049467;28;20041;-63
2023/08/19 04:57:25;;;;;;;65.07;58.72;;;23.80;99.90;;;;;;5049673;28;20582;-62
2023/08/19 04:59:51;;;;;;;64.30;58.05;;;24.10;99.90;;;;;;5048313;28;20049;-61
2023/08/19 05:02:16;;;;;;;64.13;58.00;;;25.30;99.90;;;;;;5049023;28;20067;-62
2023/08/19 05:04:42;;;;;;;64.10;58.22;;;23.70;99.90;;;;;;5049388;28;20082;-62
2023/08/19 05:07:07;;;;;;;63.85;57.75;;;24.40;99.90;;;;;;5049908;28;20071;-62
2023/08/19 05:09:33;;;;;;;64.20;58.30;;;24.20;99.90;;;;;;5055083;28;20512;-63
2023/08/19 05:11:58;;;;;;;64.15;58.20;;;25.40;99.90;;;;;;5049047;28;20044;-62
2023/08/19 05:14:25;;;;;;;64.60;58.60;;;23.80;99.90;;;;;;5049376;28;20102;-63
2023/08/19 05:16:51;;;;;;;62.28;56.47;;;23.80;99.90;;;;;;5048243;28;20187;-62
2023/08/19 05:19:20;;;;;;;64.35;58.17;;;25.50;99.90;;;;;;5047753;28;20491;-62
2023/08/19 05:21:48;;;;;;;63.92;58.00;;;25.20;99.90;;;;;;5049011;28;20049;-62
2023/08/19 05:24:14;;;;;;;61.35;55.53;;;25.50;99.90;;;;;;5049287;28;20094;-62
2023/08/19 05:26:40;;;;;;;61.95;56.17;;;25.00;99.90;;;;;;5049573;28;20045;-62
2023/08/19 05:29:06;;;;;;;60.42;54.92;;;24.90;99.90;;;;;;5049224;28;20505;-62
2023/08/19 05:31:32;;;;;;;62.20;56.45;;;23.90;99.90;;;;;;5048632;28;20041;-61
2023/08/19 05:33:58;;;;;;;62.33;56.42;;;24.00;99.90;;;;;;5048990;28;20052;-63
2023/08/19 05:36:23;;;;;;;63.25;57.05;;;25.00;99.90;;;;;;5049250;28;20087;-62
2023/08/19 05:38:49;;;;;;;61.70;56.00;;;25.40;99.90;;;;;;5052281;28;20048;-62
2023/08/19 05:41:14;;;;;;;64.18;57.83;;;25.10;99.90;;;;;;5049520;28;20059;-62
2023/08/19 05:43:40;;;;;;;62.55;56.50;;;24.80;99.90;;;;;;5049068;28;20044;-62
2023/08/19 05:46:07;;;;;;;60.58;55.08;;;24.00;99.90;;;;;;5045072;28;20128;-63
2023/08/19 05:48:32;;;;;;;61.13;55.33;;;25.60;99.90;;;;;;5047943;28;20099;-63
2023/08/19 05:50:58;;;;;;;62.55;56.45;;;24.70;99.90;;;;;;5048213;28;20045;-63
2023/08/19 05:53:24;;;;;;;61.00;55.17;;;24.60;99.90;;;;;;5044965;28;20044;-62
2023/08/19 05:55:49;;;;;;;62.13;56.25;;;24.20;99.90;;;;;;5044854;28;20047;-62
2023/08/19 05:58:15;;;;;;;62.70;56.95;;;24.20;99.90;;;;;;5046912;28;20541;-62
2023/08/19 06:00:42;;;;;;;62.83;56.67;;;25.50;99.90;;;;;;5045008;28;20099;-63
2023/08/19 06:03:08;;;;;;;63.25;57.38;;;24.20;99.90;;;;;;5055118;28;20041;-63
2023/08/19 06:05:36;;;;;;;63.40;57.60;;;25.80;99.90;;;;;;5064072;28;20480;-64
2023/08/19 06:08:04;;;;;;;62.40;56.47;;;25.00;99.90;;;;;;5047367;28;20044;-63
2023/08/19 06:10:30;;;;;;;62.08;56.20;;;24.60;99.90;;;;;;5051307;28;20037;-63
2023/08/19 06:12:56;;;;;;;59.95;53.92;;;24.70;99.90;;;;;;5049971;28;20106;-63
2023/08/19 06:15:21;;;;;;;62.38;56.35;;;25.60;99.90;;;;;;5051752;28;20040;-63
2023/08/19 06:17:47;;;;;;;62.25;56.55;;;24.70;99.90;;;;;;5055868;28;20052;-63
2023/08/19 06:20:12;;;;;;;62.65;56.75;;;24.40;99.90;;;;;;5052834;28;20033;-64
2023/08/19 06:22:38;;;;;;;63.33;57.15;;;25.90;99.90;;;;;;5050278;28;20127;-64
2023/08/19 06:25:04;;;;;;;61.50;55.67;;;25.60;99.90;;;;;;5050871;28;20116;-63
2023/08/19 06:27:30;;;;;;;61.63;55.50;;;24.60;99.90;;;;;;5052592;28;20037;-63
2023/08/19 06:29:55;;;;;;;61.63;55.75;;;26.00;99.90;;;;;;5050848;28;20111;-63
2023/08/19 06:32:21;;;;;;;63.13;57.42;;;24.80;99.90;;;;;;5049990;28;20037;-63
2023/08/19 06:34:48;;;;;;;60.63;55.13;;;25.40;99.90;;;;;;5051496;28;20043;-63
2023/08/19 06:37:19;;;;;;;61.58;55.72;;;24.90;99.90;;;;;;5051608;28;20087;-63
2023/08/19 06:39:48;;;;;;;62.03;56.15;;;26.20;99.90;;;;;;5051737;28;20045;-63
2023/08/19 06:42:16;;;;;;;61.95;55.78;;;25.90;99.90;;;;;;5049968;28;20072;-63
2023/08/19 06:44:43;;;;;;;60.25;54.55;;;25.40;99.90;;;;;;5050146;28;20041;-64
2023/08/19 06:47:10;;;;;;;60.97;55.38;;;26.20;99.90;;;;;;5050548;28;20502;-63
2023/08/19 06:49:36;;;;;;;59.20;53.83;;;26.30;99.90;;;;;;5049693;28;20036;-63
2023/08/19 06:52:03;;;;;;;60.92;55.08;;;25.90;99.90;;;;;;5050692;28;20040;-63
2023/08/19 06:54:29;;;;;;;59.75;54.05;;;26.30;99.90;;;;;;5051759;28;20083;-63
2023/08/19 06:57:04;;;;;;;60.75;54.75;;;26.30;99.90;;;;;;5049246;28;20064;-64
2023/08/19 06:59:39;;;;;;;;;;;26.30;99.90;;;;;;5049344;28;20065;-64
2023/08/19 07:02:07;;;;;;;61.63;55.35;;;25.40;99.90;;;;;;5050548;28;19928;-63
2023/08/19 07:04:35;;;;;;;61.05;55.38;;;25.10;99.90;;;;;;5050964;28;20048;-63
2023/08/19 07:07:05;;;;;;;61.40;55.53;;;25.10;99.90;;;;;;5051321;28;20045;-63
2023/08/19 07:09:34;;;;;;;62.90;57.25;;;25.00;99.90;;;;;;5050684;28;20452;-63
2023/08/19 07:11:59;;;;;;;61.03;55.53;;;26.50;99.90;;;;;;5049938;28;20072;-64
2023/08/19 07:14:26;;;;;;;61.28;55.47;;;26.00;99.90;;;;;;5049789;28;20072;-64
2023/08/19 07:16:55;;;;;;;61.65;55.85;;;26.40;99.90;;;;;;5052038;28;20044;-64
2023/08/19 07:19:34;;;;;;;62.33;56.63;;;25.30;99.90;;;;;;5049564;28;20112;-64
2023/08/19 07:21:59;;;;;;;60.90;55.10;;;25.30;99.90;;;;;;5047788;28;20039;-64
2023/08/19 07:24:25;;;;;;;60.47;54.92;;;26.20;99.90;;;;;;5049354;28;20148;-64
2023/08/19 07:26:51;;;;;;;60.85;54.88;;;25.70;99.90;;;;;;5050266;28;20049;-64
2023/08/19 07:29:17;;;;;;;57.90;52.47;;;25.90;99.90;;;;;;5046711;28;20553;-64
2023/08/19 07:31:43;;;;;;;59.63;53.70;;;26.20;99.90;;;;;;5053504;28;20035;-64
2023/08/19 07:34:08;;;;;;;58.20;52.72;;;27.10;99.90;;;;;;5049969;28;20483;-64
2023/08/19 07:36:34;;;;;;;55.33;50.38;;;27.10;99.90;;;;;;5048730;28;20044;-65
2023/08/19 07:39:00;;;;;;;57.85;52.63;;;27.20;99.90;;;;;;5046860;28;20051;-64
2023/08/19 07:41:26;;;;;;;55.80;50.58;;;27.00;99.90;;;;;;5049368;28;20118;-64
2023/08/19 07:43:52;;;;;;;55.72;50.42;;;26.40;99.90;;;;;;5057726;28;20055;-64
2023/08/19 07:46:17;;;;;;;55.60;50.13;;;26.70;99.90;;;;;;5047113;28;20033;-64
2023/08/19 07:48:46;;;;;;;55.42;50.13;;;27.30;99.90;;;;;;5059104;28;20037;-64
2023/08/19 07:51:12;;;;;;;54.92;49.85;;;27.00;99.90;;;;;;5049601;28;20071;-64
2023/08/19 07:53:38;;;;;;;53.63;48.72;;;26.50;99.90;;;;;;5029689;28;20533;-64
2023/08/19 07:56:06;;;;;;;53.65;48.63;;;26.60;99.90;;;;;;5048282;28;20555;-64
2023/08/19 07:58:32;;;;;;;53.50;48.70;;;26.60;99.90;;;;;;5045705;28;20051;-64
2023/08/19 08:00:58;;;;;;;53.55;48.35;;;27.10;99.90;;;;;;5051166;28;20040;-64
2023/08/19 08:03:24;;;;;;;50.85;46.25;;;27.00;99.90;;;;;;5048609;28;20044;-64
2023/08/19 08:05:49;;;;;;;52.63;47.88;;;27.40;99.90;;;;;;5050514;28;20093;-64
2023/08/19 08:08:15;;;;;;;54.35;49.22;;;27.50;99.90;;;;;;5048859;28;20048;-64
2023/08/19 08:10:41;;;;;;;55.00;49.95;;;26.80;99.90;;;;;;5054027;28;20064;-65
2023/08/19 08:13:06;;;;;;;56.30;51.00;;;26.90;99.90;;;;;;5049018;28;20025;-64
2023/08/19 08:15:32;;;;;;;55.30;49.80;;;27.60;99.90;;;;;;5048636;28;20116;-64
2023/08/19 08:17:58;;;;;;;57.08;51.47;;;26.80;99.90;;;;;;5049079;28;20518;-64
2023/08/19 08:20:23;;;;;;;53.45;48.55;;;27.10;99.90;;;;;;5048928;28;20048;-63
2023/08/19 08:22:49;;;;;;;55.42;50.03;;;27.30;99.90;;;;;;5049927;28;20033;-63
2023/08/19 08:25:14;;;;;;;54.17;48.97;;;27.40;99.90;;;;;;5045868;28;20083;-63
2023/08/19 08:27:40;;;;;;;55.00;49.50;;;27.60;99.90;;;;;;5046665;28;20045;-63
2023/08/19 08:30:06;;;;;;;57.42;51.83;;;27.30;99.90;;;;;;5042346;28;20072;-64
2023/08/19 08:32:32;;;;;;;58.47;52.72;;;26.60;99.90;;;;;;5049297;28;20474;-63
2023/08/19 08:34:59;;;;;;;56.10;50.67;;;26.90;99.90;;;;;;5046577;28;20041;-63
2023/08/19 08:37:24;;;;;;;48.03;43.08;;;26.70;99.90;;;;;;5045936;28;20037;-64
2023/08/19 08:39:50;;;;;;;50.17;43.92;;;26.40;99.90;;;;;;5048712;28;20529;-65
2023/08/19 08:42:16;;;;;;;48.97;44.10;;;27.60;99.90;;;;;;5047205;28;20032;-64
2023/08/19 08:44:44;;;;;;;46.38;42.08;;;26.70;99.90;;;;;;5053955;28;20489;-64
2023/08/19 08:47:11;;;;;;;49.25;44.47;;;27.50;99.90;;;;;;5052446;28;20118;-64
2023/08/19 08:49:37;;;;;;;48.88;43.78;;;27.30;99.90;;;;;;5049088;28;20108;-64
2023/08/19 08:52:03;;;;;;;50.25;45.10;;;26.10;99.90;;;;;;5048172;28;20041;-64
2023/08/19 08:54:32;;;;;;;51.10;46.45;;;26.30;99.90;;;;;;5056330;28;20039;-64
2023/08/19 08:56:59;;;;;;;51.00;46.35;;;27.70;99.90;;;;;;5051683;28;20044;-63
2023/08/19 08:59:25;;;;;;;50.88;46.00;;;27.70;99.90;;;;;;5048873;28;20056;-64
2023/08/19 09:01:51;;;;;;;51.47;46.60;;;26.30;99.90;;;;;;5041442;28;20093;-64
2023/08/19 09:04:19;;;;;;;52.97;48.10;;;26.80;99.90;;;;;;5051278;28;20036;-64
2023/08/19 09:06:48;;;;;;;52.35;47.55;;;27.80;99.90;;;;;;5043892;28;20056;-64
2023/08/19 09:09:14;;;;;;;54.72;49.83;;;27.50;99.90;;;;;;5047999;28;20037;-64
2023/08/19 09:11:44;;;;;;;53.33;48.42;;;26.20;99.90;;;;;;5051040;28;20065;-64
2023/08/19 09:14:30;;;;;;;55.47;50.10;;;27.70;99.90;;;;;;5047218;28;20415;-65
2023/08/19 09:16:56;;;;;;;55.70;50.50;;;26.70;99.90;;;;;;5048925;28;20090;-64
2023/08/19 09:19:21;;;;;;;56.03;50.78;;;27.50;99.90;;;;;;5048807;28;20041;-64
2023/08/19 09:21:47;;;;;;;55.13;49.88;;;26.90;99.90;;;;;;5048184;28;20033;-64
2023/08/19 09:24:16;;;;;;;56.95;50.45;;;27.70;99.90;;;;;;5046872;28;20041;-64
2023/08/19 09:26:43;;;;;;;57.20;51.38;;;27.30;99.90;;;;;;5047714;28;20041;-64
2023/08/19 09:29:08;;;;;;;57.65;51.58;;;28.10;99.90;;;;;;5050531;28;20597;-64
2023/08/19 09:31:34;;;;;;;58.45;52.63;;;27.90;99.90;;;;;;5048321;28;20041;-65
2023/08/19 09:34:00;;;;;;;59.90;53.70;;;27.20;99.90;;;;;;5046908;28;20044;-65
2023/08/19 09:36:26;;;;;;;57.83;52.05;;;27.80;99.90;;;;;;5044795;28;20624;-65
2023/08/19 09:38:56;;;;;;;58.97;53.10;;;27.80;99.90;;;;;;5051940;28;20033;-65
2023/08/19 09:41:27;;;;;;;57.53;51.83;;;28.30;99.90;;;;;;5051909;28;20483;-65
2023/08/19 09:43:53;;;;;;;57.92;51.80;;;27.70;99.90;;;;;;5052159;28;20108;-66
2023/08/19 09:46:19;;;;;;;62.83;56.83;;;27.10;99.90;;;;;;5053221;28;20055;-65
2023/08/19 09:48:54;;;;;;;58.83;52.60;;;28.10;99.90;;;;;;5047075;28;20123;-65
2023/08/19 09:51:24;;;;;;;59.20;53.42;;;27.10;99.90;;;;;;5054037;28;20047;-65
2023/08/19 09:53:51;;;;;;;61.60;55.17;;;27.50;99.90;;;;;;5049311;28;20048;-65
2023/08/19 09:56:21;;;;;;;61.42;55.42;;;28.30;99.90;;;;;;5049503;28;20071;-66
2023/08/19 09:58:49;;;;;;;59.35;53.47;;;28.50;99.90;;;;;;5047713;28;20044;-66
2023/08/19 10:01:14;;;;;;;60.95;55.17;;;28.10;99.90;;;;;;5049992;28;20041;-66
2023/08/19 10:03:40;;;;;;;62.63;56.40;;;27.60;99.90;;;;;;5051691;28;20505;-66
2023/08/19 10:06:08;;;;;;;60.40;54.53;;;27.80;99.90;;;;;;5051162;28;20041;-66
2023/08/19 10:08:38;;;;;;;65.72;59.28;;;27.70;99.90;;;;;;5050786;28;20041;-66
2023/08/19 10:11:05;;;;;;;61.22;54.80;;;28.70;99.90;;;;;;5049008;28;20037;-66
2023/08/19 10:13:33;;;;;;;60.28;53.95;;;28.00;99.90;;;;;;5049593;28;20132;-65
2023/08/19 10:16:03;;;;;;;60.92;55.03;;;28.50;99.90;;;;;;5051471;28;20060;-65
2023/08/19 10:18:35;;;;;;;63.60;56.95;;;27.60;99.90;;;;;;5050887;28;20135;-65
2023/08/19 10:21:05;;;;;;;66.15;59.42;;;28.40;99.90;;;;;;5050566;28;20080;-65
2023/08/19 10:23:32;;;;;;;68.18;61.15;;;27.90;99.90;;;;;;5043057;28;20049;-65
2023/08/19 10:25:58;;;;;;;72.60;65.03;;;27.50;99.90;;;;;;5047464;28;20041;-65
2023/08/19 10:28:28;;;;;;;76.85;68.55;;;28.00;99.90;;;;;;5051288;28;20059;-66
2023/08/19 10:31:12;;;;;;;80.97;72.10;;;28.10;99.90;;;;;;5048857;28;20048;-66
2023/08/19 10:33:49;;;;;;;81.20;72.32;;;27.20;99.90;;;;;;5052106;28;20037;-65
2023/08/19 10:36:18;;;;;;;84.50;74.03;;;27.10;99.90;;;;;;5054792;28;20039;-65
2023/08/19 10:39:00;;;;;;;83.55;73.07;;;27.00;99.90;;;;;;5043071;28;20045;-66
2023/08/19 10:41:30;;;;;;;84.28;73.57;;;27.60;99.90;;;;;;5052685;28;20080;-64
2023/08/19 10:43:58;;;;;;;88.35;77.30;;;26.90;99.90;;;;;;5051970;28;20041;-64
2023/08/19 10:46:30;;;;;;;92.05;77.38;;;27.40;99.90;;;;;;5051896;28;20060;-64
2023/08/19 10:48:56;;;;;;;90.90;77.53;;;27.80;99.90;;;;;;5066385;28;20071;-64
2023/08/19 10:51:53;;;;;;;89.55;75.28;;;28.00;99.90;;;;;;5051125;28;20029;-64
2023/08/19 10:54:38;;;;;;;78.60;69.45;;;27.10;99.90;;;;;;5070323;28;20131;-64
2023/08/19 10:57:11;;;;;;;84.60;70.13;;;27.20;99.90;;;;;;5047704;28;20318;-64
2023/08/19 10:59:39;;;;;;;67.38;58.83;;;27.10;99.90;;;;;;5050833;28;20053;-64
2023/08/19 11:02:05;;;;;;;73.38;64.40;;;27.50;99.90;;;;;;5051317;28;20037;-64
2023/08/19 11:04:32;;;;;;;75.38;65.63;;;27.30;99.90;;;;;;5051059;28;20041;-64
2023/08/19 11:06:58;;;;;;;62.78;56.17;;;27.60;99.90;;;;;;5050676;28;20411;-63
2023/08/19 11:09:25;;;;;;;62.30;55.58;;;27.20;99.90;;;;;;5050889;28;20033;-64
2023/08/19 11:11:51;;;;;;;64.15;55.63;;;27.50;99.90;;;;;;5051771;28;20120;-64
2023/08/19 11:14:22;;;;;;;57.88;50.25;;;27.00;99.90;;;;;;5048645;28;20029;-64
2023/08/19 11:16:51;;;;;;;54.70;48.88;;;27.50;99.90;;;;;;5051199;28;20045;-64
2023/08/19 11:19:17;;;;;;;48.03;43.08;;;27.10;99.90;;;;;;5051207;28;20411;-64
2023/08/19 11:21:43;;;;;;;47.80;42.72;;;27.30;99.90;;;;;;5051504;28;20119;-64
2023/08/19 11:24:11;;;;;;;48.58;43.28;;;27.20;99.90;;;;;;5046747;28;20043;-64
2023/08/19 11:26:37;;;;;;;42.97;38.58;;;27.30;99.90;;;;;;5052365;28;20045;-64
2023/08/19 11:29:04;;;;;;;41.88;37.13;;;27.30;99.90;;;;;;5050817;28;20056;-64
2023/08/19 11:31:30;;;;;;;41.45;37.13;;;27.40;99.90;;;;;;5050487;28;20111;-64
2023/08/19 11:33:56;;;;;;;39.38;35.28;;;27.40;99.90;;;;;;5050313;28;20125;-64
2023/08/19 11:36:27;;;;;;;38.95;34.97;;;27.70;99.90;;;;;;5050841;28;20029;-64
2023/08/19 11:38:56;;;;;;;37.78;33.88;;;27.70;99.90;;;;;;5049060;28;20041;-64
2023/08/19 11:41:23;;;;;;;38.20;34.28;;;27.70;99.90;;;;;;5056139;28;20044;-64
2023/08/19 11:43:50;;;;;;;36.00;32.33;;;27.70;99.90;;;;;;5050675;28;20068;-64
2023/08/19 11:46:16;;;;;;;34.83;31.30;;;27.60;99.90;;;;;;5050435;28;20045;-64
2023/08/19 11:48:42;;;;;;;35.55;31.73;;;27.90;99.90;;;;;;5049503;28;20059;-64
2023/08/19 11:51:11;;;;;;;34.05;30.63;;;27.70;99.90;;;;;;5050644;28;20106;-64
2023/08/19 11:53:38;;;;;;;30.00;27.20;;;28.20;99.90;;;;;;5045040;28;20037;-62
2023/08/19 11:56:04;;;;;;;29.23;26.33;;;28.00;99.90;;;;;;5049928;28;20083;-63
2023/08/19 11:58:41;;;;;;;32.70;29.33;;;27.90;99.90;;;;;;5051024;28;20045;-62
2023/08/19 12:01:07;;;;;;;30.70;27.67;;;27.80;99.90;;;;;;5049231;28;20130;-63
2023/08/19 12:03:33;;;;;;;29.42;26.35;;;27.70;99.90;;;;;;5051893;28;20044;-62
2023/08/19 12:05:58;;;;;;;29.83;26.85;;;27.60;1.00;;;;;;5049142;28;20536;-62
2023/08/19 12:08:31;;;;;;;30.45;27.50;;;27.60;99.90;;;;;;5049638;28;20083;-62
2023/08/19 12:10:57;;;;;;;29.33;26.40;;;27.50;99.90;;;;;;5050247;28;20463;-63
2023/08/19 12:13:23;;;;;;;29.65;26.60;;;27.50;99.90;;;;;;5050265;28;20045;-62
2023/08/19 12:15:49;;;;;;;30.95;27.75;;;27.50;99.90;;;;;;5050478;28;20456;-64
2023/08/19 12:18:16;;;;;;;30.35;27.35;;;27.50;99.90;;;;;;5049797;28;20543;-62
2023/08/19 12:20:41;;;;;;;29.52;26.58;;;27.50;99.90;;;;;;5049911;28;20041;-62
2023/08/19 12:23:07;;;;;;;26.25;23.90;;;27.30;8.10;;;;;;5048077;28;20041;-64
2023/08/19 12:25:32;;;;;;;26.05;23.42;;;27.30;99.90;;;;;;5049688;28;20163;-62
2023/08/19 12:27:58;;;;;;;27.42;24.73;;;27.20;99.90;;;;;;5056617;28;20573;-63